Sardinia Regina — IBMS — position and weather

sailwx.info

Track history (hours):
 
Tides and Currents Weather Stations Pressure Air Temp Water Temp Dewpoint Dewpoint Depression Visibility Wind Speed Wind Dir Waves Ship Positions

Sardinia Regina

Last reported at 2015-Aug-31 02:34 UTC. Time now 2015-Aug-31 02:38 UTC.
Position N 44°02' E 008°42'.

Length 146 m; draft 5 m.

Type: Passenger vessel. MMSI: 247079000.

Date/timePositionNaut miles runAvg speedWind from/ knotsBaromVisibWave heightAir tempDewpointWater temp
2015-Aug-31 02:34N 44°02' E 008°42'1212.3
2015-Aug-31 01:34N 43°52' E 008°53'1212.3
2015-Aug-31 00:34N 43°42' E 009°02'1212.2
2015-Aug-30 23:33N 43°30' E 009°06'1312.6
2015-Aug-30 22:34N 43°20' E 009°16'1110.9
2015-Aug-30 21:33N 43°10' E 009°23'1010.4
2015-Aug-30 20:33N 43°01' E 009°30'15 3.5
2015-Aug-30 16:08N 42°46' E 009°36'1017.3
2015-Aug-30 15:33N 42°53' E 009°46'2317.5
2015-Aug-30 14:16N 43°12' E 010°03'1318.3
2015-Aug-30 13:33N 43°24' E 010°09'1211.5
2015-Aug-30 12:33N 43°33' E 010°18'0 0.0
2015-Aug-30 11:33N 43°33' E 010°18'3 2.5
2015-Aug-30 10:33N 43°31' E 010°16'1616.5
2015-Aug-30 09:33N 43°16' E 010°06'3316.4
2015-Aug-30 07:33N 42°49' E 009°40'12 3.0
2015-Aug-30 03:23N 42°60' E 009°31'1614.1
2015-Aug-30 02:16N 43°13' E 009°20'1614.8
2015-Aug-30 01:11N 43°26' E 009°06'1014.8
2015-Aug-30 00:29N 43°35' E 009°01'1414.7
2015-Aug-29 23:33N 43°47' E 008°52'1614.6
2015-Aug-29 22:30N 44°01' E 008°42'1415.2
2015-Aug-29 21:34N 44°13' E 008°31'4 4.1
2015-Aug-29 20:34N 44°16' E 008°27'7 7.3
2015-Aug-29 19:33N 44°11' E 008°35'1817.8
2015-Aug-29 18:33N 43°56' E 008°47'1817.7
2015-Aug-29 17:33N 43°40' E 009°00'1817.7
2015-Aug-29 16:33N 43°25' E 009°12'3517.7
2015-Aug-29 14:33N 42°53' E 009°32'29 5.8
2015-Aug-29 09:33N 43°19' E 009°15'2617.6
2015-Aug-29 08:05N 43°41' E 008°57'917.4
2015-Aug-29 07:33N 43°49' E 008°50'1717.4
2015-Aug-29 06:33N 44°05' E 008°38'1413.4
2015-Aug-29 05:31N 44°16' E 008°27'0 0.0
2015-Aug-29 04:31N 44°16' E 008°27'6 6.7
2015-Aug-29 03:33N 44°12' E 008°34'10 9.7
2015-Aug-29 02:33N 44°04' E 008°42'10 9.8
2015-Aug-29 01:33N 43°55' E 008°49'10 9.7
2015-Aug-29 00:34N 43°47' E 008°55'10 9.7
2015-Aug-28 23:33N 43°38' E 009°02'9 9.5
2015-Aug-28 22:34N 43°30' E 009°08'1111.4
2015-Aug-28 21:33N 43°20' E 009°15'1312.5
2015-Aug-28 20:33N 43°09' E 009°24'23 4.7
2015-Aug-28 15:33N 42°49' E 009°41'1917.4
2015-Aug-28 14:28N 43°03' E 009°59'1718.3
2015-Aug-28 13:31N 43°19' E 010°07'1515.5
2015-Aug-28 12:33N 43°32' E 010°16'1 1.4
2015-Aug-28 11:33N 43°33' E 010°18'3 2.5
2015-Aug-28 10:33N 43°31' E 010°16'1615.7
2015-Aug-28 09:32N 43°17' E 010°06'1615.8
2015-Aug-28 08:34N 43°02' E 009°59'35 4.9
2015-Aug-28 01:33N 43°17' E 009°16'1212.1
2015-Aug-28 00:33N 43°28' E 009°08'3911.8
2015-Aug-27 21:14N 44°02' E 008°41'912.9
2015-Aug-27 20:33N 44°09' E 008°34'9 8.6
2015-Aug-27 19:33N 44°16' E 008°27'0 0.0
2015-Aug-27 18:33N 44°16' E 008°27'0 0.0
2015-Aug-27 17:33N 44°16' E 008°27'0 0.0
2015-Aug-27 16:33N 44°16' E 008°27'0 0.0
2015-Aug-27 15:33N 44°16' E 008°27'0 0.0
2015-Aug-27 14:33N 44°16' E 008°27'0 0.0
2015-Aug-27 13:33N 44°16' E 008°27'4 4.0
2015-Aug-27 12:34N 44°14' E 008°32'1818.0
2015-Aug-27 11:33N 43°59' E 008°45'1817.9
2015-Aug-27 10:33N 43°43' E 008°58'1817.8
2015-Aug-27 09:34N 43°28' E 009°10'1717.4
2015-Aug-27 08:34N 43°12' E 009°21'1917.6
2015-Aug-27 07:30N 42°56' E 009°32'40 6.8
2015-Aug-27 01:33N 43°31' E 009°06'1817.8
2015-Aug-27 00:33N 43°46' E 008°53'1817.7
2015-Aug-26 23:33N 44°01' E 008°41'1817.5
2015-Aug-26 22:33N 44°16' E 008°28'1 0.6
2015-Aug-26 21:33N 44°16' E 008°27'7 6.8
2015-Aug-26 20:34N 44°12' E 008°34'1817.8
2015-Aug-26 19:33N 43°56' E 008°47'1817.8
2015-Aug-26 18:33N 43°41' E 008°59'1817.8
2015-Aug-26 17:33N 43°25' E 009°11'2317.5
2015-Aug-26 16:14N 43°05' E 009°27'6 1.3
2015-Aug-26 11:26N 43°10' E 009°22'1618.4
2015-Aug-26 10:33N 43°24' E 009°11'1818.0
2015-Aug-26 09:33N 43°40' E 008°59'3617.7
2015-Aug-26 07:33N 44°10' E 008°34'8 7.5
2015-Aug-26 06:34N 44°16' E 008°27'7 7.3
2015-Aug-26 05:33N 44°11' E 008°35'1817.8
2015-Aug-26 04:33N 43°56' E 008°48'1917.3
2015-Aug-26 03:25N 43°39' E 009°01'36 3.3
2015-Aug-25 16:33N 44°09' E 008°34'8 7.9
2015-Aug-25 15:31N 44°16' E 008°27'0 0.0
2015-Aug-25 14:33N 44°16' E 008°27'1313.0
2015-Aug-25 13:33N 44°07' E 008°40'1716.8
2015-Aug-25 12:34N 43°52' E 008°50'14 1.2
2015-Aug-25 00:29N 44°03' E 008°39'1617.0
2015-Aug-24 23:33N 44°16' E 008°27'0 0.4
2015-Aug-24 22:33N 44°16' E 008°27'4 4.3
2015-Aug-24 21:33N 44°13' E 008°32'1817.6
2015-Aug-24 20:33N 43°58' E 008°45'9 0.6
2015-Aug-24 06:24N 44°05' E 008°37'1314.3
2015-Aug-24 05:29N 44°16' E 008°27'0 0.0
2015-Aug-24 04:33N 44°16' E 008°27'5 4.6
2015-Aug-24 03:33N 44°14' E 008°33'1414.0
2015-Aug-24 02:33N 44°02' E 008°44'7 0.2
2015-Aug-22 22:16N 44°07' E 008°36'1116.0
2015-Aug-22 21:33N 44°16' E 008°27'0 0.5
2015-Aug-22 20:33N 44°16' E 008°27'6 6.2
2015-Aug-22 19:33N 44°12' E 008°34'4 0.3
2015-Aug-22 06:09N 44°08' E 008°35'1017.1
2015-Aug-22 05:34N 44°16' E 008°27'0 0.4
2015-Aug-22 04:28N 44°16' E 008°27'4 4.8
2015-Aug-22 03:33N 44°14' E 008°32'1211.9
2015-Aug-22 02:33N 44°04' E 008°42'1212.4
2015-Aug-22 01:33N 43°53' E 008°49'73 3.5
2015-Aug-21 04:26N 42°47' E 009°31'  
Track history (hours):
 
Tides and Currents Weather Stations Pressure Air Temp Water Temp Dewpoint Dewpoint Depression Visibility Wind Speed Wind Dir Waves Ship Positions

Sardinia Regina

Last reported at 2015-Aug-31 02:34 UTC. Time now 2015-Aug-31 02:38 UTC.
Position N 44°02' E 008°42'.

Length 146 m; draft 5 m.

Type: Passenger vessel. MMSI: 247079000.

Date/timePositionNaut miles runAvg speedWind from/ knotsBaromVisibWave heightAir tempDewpointWater temp
2015-Aug-31 02:34N 44°02' E 008°42'1212.3
2015-Aug-31 01:34N 43°52' E 008°53'1212.3
2015-Aug-31 00:34N 43°42' E 009°02'1212.2
2015-Aug-30 23:33N 43°30' E 009°06'1312.6
2015-Aug-30 22:34N 43°20' E 009°16'1110.9
2015-Aug-30 21:33N 43°10' E 009°23'1010.4
2015-Aug-30 20:33N 43°01' E 009°30'15 3.5
2015-Aug-30 16:08N 42°46' E 009°36'1017.3
2015-Aug-30 15:33N 42°53' E 009°46'2317.5
2015-Aug-30 14:16N 43°12' E 010°03'1318.3
2015-Aug-30 13:33N 43°24' E 010°09'1211.5
2015-Aug-30 12:33N 43°33' E 010°18'0 0.0
2015-Aug-30 11:33N 43°33' E 010°18'3 2.5
2015-Aug-30 10:33N 43°31' E 010°16'1616.5
2015-Aug-30 09:33N 43°16' E 010°06'3316.4
2015-Aug-30 07:33N 42°49' E 009°40'12 3.0
2015-Aug-30 03:23N 42°60' E 009°31'1614.1
2015-Aug-30 02:16N 43°13' E 009°20'1614.8
2015-Aug-30 01:11N 43°26' E 009°06'1014.8
2015-Aug-30 00:29N 43°35' E 009°01'1414.7
2015-Aug-29 23:33N 43°47' E 008°52'1614.6
2015-Aug-29 22:30N 44°01' E 008°42'1415.2
2015-Aug-29 21:34N 44°13' E 008°31'4 4.1
2015-Aug-29 20:34N 44°16' E 008°27'7 7.3
2015-Aug-29 19:33N 44°11' E 008°35'1817.8
2015-Aug-29 18:33N 43°56' E 008°47'1817.7
2015-Aug-29 17:33N 43°40' E 009°00'1817.7
2015-Aug-29 16:33N 43°25' E 009°12'3517.7
2015-Aug-29 14:33N 42°53' E 009°32'29 5.8
2015-Aug-29 09:33N 43°19' E 009°15'2617.6
2015-Aug-29 08:05N 43°41' E 008°57'917.4
2015-Aug-29 07:33N 43°49' E 008°50'1717.4
2015-Aug-29 06:33N 44°05' E 008°38'1413.4
2015-Aug-29 05:31N 44°16' E 008°27'0 0.0
2015-Aug-29 04:31N 44°16' E 008°27'6 6.7
2015-Aug-29 03:33N 44°12' E 008°34'10 9.7
2015-Aug-29 02:33N 44°04' E 008°42'10 9.8
2015-Aug-29 01:33N 43°55' E 008°49'10 9.7
2015-Aug-29 00:34N 43°47' E 008°55'10 9.7
2015-Aug-28 23:33N 43°38' E 009°02'9 9.5
2015-Aug-28 22:34N 43°30' E 009°08'1111.4
2015-Aug-28 21:33N 43°20' E 009°15'1312.5
2015-Aug-28 20:33N 43°09' E 009°24'23 4.7
2015-Aug-28 15:33N 42°49' E 009°41'1917.4
2015-Aug-28 14:28N 43°03' E 009°59'1718.3
2015-Aug-28 13:31N 43°19' E 010°07'1515.5
2015-Aug-28 12:33N 43°32' E 010°16'1 1.4
2015-Aug-28 11:33N 43°33' E 010°18'3 2.5
2015-Aug-28 10:33N 43°31' E 010°16'1615.7
2015-Aug-28 09:32N 43°17' E 010°06'1615.8
2015-Aug-28 08:34N 43°02' E 009°59'35 4.9
2015-Aug-28 01:33N 43°17' E 009°16'1212.1
2015-Aug-28 00:33N 43°28' E 009°08'3911.8
2015-Aug-27 21:14N 44°02' E 008°41'912.9
2015-Aug-27 20:33N 44°09' E 008°34'9 8.6
2015-Aug-27 19:33N 44°16' E 008°27'0 0.0
2015-Aug-27 18:33N 44°16' E 008°27'0 0.0
2015-Aug-27 17:33N 44°16' E 008°27'0 0.0
2015-Aug-27 16:33N 44°16' E 008°27'0 0.0
2015-Aug-27 15:33N 44°16' E 008°27'0 0.0
2015-Aug-27 14:33N 44°16' E 008°27'0 0.0
2015-Aug-27 13:33N 44°16' E 008°27'4 4.0
2015-Aug-27 12:34N 44°14' E 008°32'1818.0
2015-Aug-27 11:33N 43°59' E 008°45'1817.9
2015-Aug-27 10:33N 43°43' E 008°58'1817.8
2015-Aug-27 09:34N 43°28' E 009°10'1717.4
2015-Aug-27 08:34N 43°12' E 009°21'1917.6
2015-Aug-27 07:30N 42°56' E 009°32'40 6.8
2015-Aug-27 01:33N 43°31' E 009°06'1817.8
2015-Aug-27 00:33N 43°46' E 008°53'1817.7
2015-Aug-26 23:33N 44°01' E 008°41'1817.5
2015-Aug-26 22:33N 44°16' E 008°28'1 0.6
2015-Aug-26 21:33N 44°16' E 008°27'7 6.8
2015-Aug-26 20:34N 44°12' E 008°34'1817.8
2015-Aug-26 19:33N 43°56' E 008°47'1817.8
2015-Aug-26 18:33N 43°41' E 008°59'1817.8
2015-Aug-26 17:33N 43°25' E 009°11'2317.5
2015-Aug-26 16:14N 43°05' E 009°27'6 1.3
2015-Aug-26 11:26N 43°10' E 009°22'1618.4
2015-Aug-26 10:33N 43°24' E 009°11'1818.0
2015-Aug-26 09:33N 43°40' E 008°59'3617.7
2015-Aug-26 07:33N 44°10' E 008°34'8 7.5
2015-Aug-26 06:34N 44°16' E 008°27'7 7.3
2015-Aug-26 05:33N 44°11' E 008°35'1817.8
2015-Aug-26 04:33N 43°56' E 008°48'1917.3
2015-Aug-26 03:25N 43°39' E 009°01'36 3.3
2015-Aug-25 16:33N 44°09' E 008°34'8 7.9
2015-Aug-25 15:31N 44°16' E 008°27'0 0.0
2015-Aug-25 14:33N 44°16' E 008°27'1313.0
2015-Aug-25 13:33N 44°07' E 008°40'1716.8
2015-Aug-25 12:34N 43°52' E 008°50'14 1.2
2015-Aug-25 00:29N 44°03' E 008°39'1617.0
2015-Aug-24 23:33N 44°16' E 008°27'0 0.4
2015-Aug-24 22:33N 44°16' E 008°27'4 4.3
2015-Aug-24 21:33N 44°13' E 008°32'1817.6
2015-Aug-24 20:33N 43°58' E 008°45'9 0.6
2015-Aug-24 06:24N 44°05' E 008°37'1314.3
2015-Aug-24 05:29N 44°16' E 008°27'0 0.0
2015-Aug-24 04:33N 44°16' E 008°27'5 4.6
2015-Aug-24 03:33N 44°14' E 008°33'1414.0
2015-Aug-24 02:33N 44°02' E 008°44'7 0.2
2015-Aug-22 22:16N 44°07' E 008°36'1116.0
2015-Aug-22 21:33N 44°16' E 008°27'0 0.5
2015-Aug-22 20:33N 44°16' E 008°27'6 6.2
2015-Aug-22 19:33N 44°12' E 008°34'4 0.3
2015-Aug-22 06:09N 44°08' E 008°35'1017.1
2015-Aug-22 05:34N 44°16' E 008°27'0 0.4
2015-Aug-22 04:28N 44°16' E 008°27'4 4.8
2015-Aug-22 03:33N 44°14' E 008°32'1211.9
2015-Aug-22 02:33N 44°04' E 008°42'1212.4
2015-Aug-22 01:33N 43°53' E 008°49'73 3.5
2015-Aug-21 04:26N 42°47' E 009°31'  

Dump ship's entire track history